sensor_id;sensor_type;location;lat;lon;timestamp;temperature;humidity
67194;DHT22;54121;53.508;49.422;2023-02-14T00:02:26;-3.60;76.00
67194;DHT22;54121;53.508;49.422;2023-02-14T00:04:53;-3.50;76.20
67194;DHT22;54121;53.508;49.422;2023-02-14T00:07:19;-3.50;75.90
67194;DHT22;54121;53.508;49.422;2023-02-14T00:09:46;-3.40;75.60
67194;DHT22;54121;53.508;49.422;2023-02-14T00:12:12;-3.40;75.70
67194;DHT22;54121;53.508;49.422;2023-02-14T00:14:40;-3.40;75.50
67194;DHT22;54121;53.508;49.422;2023-02-14T00:17:24;-3.40;75.80
67194;DHT22;54121;53.508;49.422;2023-02-14T00:19:51;-3.40;75.60
67194;DHT22;54121;53.508;49.422;2023-02-14T00:22:17;-3.30;75.70
67194;DHT22;54121;53.508;49.422;2023-02-14T00:24:44;-3.40;75.80
67194;DHT22;54121;53.508;49.422;2023-02-14T00:27:10;-3.40;75.90
67194;DHT22;54121;53.508;49.422;2023-02-14T00:29:37;-3.40;75.60
67194;DHT22;54121;53.508;49.422;2023-02-14T00:32:04;-3.30;75.90
67194;DHT22;54121;53.508;49.422;2023-02-14T00:34:30;-3.30;76.30
67194;DHT22;54121;53.508;49.422;2023-02-14T00:36:58;-3.40;76.80
67194;DHT22;54121;53.508;49.422;2023-02-14T00:39:25;-3.40;77.20
67194;DHT22;54121;53.508;49.422;2023-02-14T00:41:52;-3.40;77.50
67194;DHT22;54121;53.508;49.422;2023-02-14T00:44:18;-3.50;78.00
67194;DHT22;54121;53.508;49.422;2023-02-14T00:46:45;-3.50;78.50
67194;DHT22;54121;53.508;49.422;2023-02-14T00:49:11;-3.50;78.50
67194;DHT22;54121;53.508;49.422;2023-02-14T00:51:39;-3.60;79.30
67194;DHT22;54121;53.508;49.422;2023-02-14T00:54:05;-3.50;79.30
67194;DHT22;54121;53.508;49.422;2023-02-14T00:56:32;-3.50;79.30
67194;DHT22;54121;53.508;49.422;2023-02-14T00:58:59;-3.50;79.70
67194;DHT22;54121;53.508;49.422;2023-02-14T01:01:25;-3.50;79.90
67194;DHT22;54121;53.508;49.422;2023-02-14T01:03:52;-3.50;79.50
67194;DHT22;54121;53.508;49.422;2023-02-14T01:06:18;-3.40;79.20
67194;DHT22;54121;53.508;49.422;2023-02-14T01:08:45;-3.50;79.30
67194;DHT22;54121;53.508;49.422;2023-02-14T01:11:15;-3.50;78.90
67194;DHT22;54121;53.508;49.422;2023-02-14T01:13:43;-3.40;79.00
67194;DHT22;54121;53.508;49.422;2023-02-14T01:16:13;-3.50;78.90
67194;DHT22;54121;53.508;49.422;2023-02-14T01:18:40;-3.50;78.90
67194;DHT22;54121;53.508;49.422;2023-02-14T01:23:45;-3.60;79.00
67194;DHT22;54121;53.508;49.422;2023-02-14T01:26:12;-3.60;79.20
67194;DHT22;54121;53.508;49.422;2023-02-14T01:28:39;-3.60;79.30
67194;DHT22;54121;53.508;49.422;2023-02-14T01:31:18;-3.60;78.90
67194;DHT22;54121;53.508;49.422;2023-02-14T01:33:46;-3.50;79.20
67194;DHT22;54121;53.508;49.422;2023-02-14T01:36:25;-3.50;78.50
67194;DHT22;54121;53.508;49.422;2023-02-14T01:38:54;-3.60;78.60
67194;DHT22;54121;53.508;49.422;2023-02-14T01:41:21;-3.60;79.10
67194;DHT22;54121;53.508;49.422;2023-02-14T01:46:18;-3.60;79.40
67194;DHT22;54121;53.508;49.422;2023-02-14T01:48:46;-3.60;80.70
67194;DHT22;54121;53.508;49.422;2023-02-14T01:51:14;-3.50;79.80
67194;DHT22;54121;53.508;49.422;2023-02-14T01:53:42;-3.50;79.60
67194;DHT22;54121;53.508;49.422;2023-02-14T01:56:12;-3.50;79.70
67194;DHT22;54121;53.508;49.422;2023-02-14T01:58:43;-3.40;79.70
67194;DHT22;54121;53.508;49.422;2023-02-14T02:01:15;-3.40;79.80
67194;DHT22;54121;53.508;49.422;2023-02-14T02:06:15;-3.40;79.60
67194;DHT22;54121;53.508;49.422;2023-02-14T02:11:21;-3.30;80.10
67194;DHT22;54121;53.508;49.422;2023-02-14T02:13:47;-3.30;80.30
67194;DHT22;54121;53.508;49.422;2023-02-14T02:28:24;-3.30;80.20
67194;DHT22;54121;53.508;49.422;2023-02-14T02:44:41;-3.00;79.00
67194;DHT22;54121;53.508;49.422;2023-02-14T02:50:25;-3.00;79.40
67194;DHT22;54121;53.508;49.422;2023-02-14T02:56:19;-2.80;79.30
67194;DHT22;54121;53.508;49.422;2023-02-14T02:59:15;-2.70;79.10
67194;DHT22;54121;53.508;49.422;2023-02-14T03:01:56;-2.60;78.20
67194;DHT22;54121;53.508;49.422;2023-02-14T03:04:25;-2.60;77.80
67194;DHT22;54121;53.508;49.422;2023-02-14T03:07:11;-2.60;78.00
67194;DHT22;54121;53.508;49.422;2023-02-14T03:09:58;-2.60;78.40
67194;DHT22;54121;53.508;49.422;2023-02-14T03:17:58;-2.60;78.60
67194;DHT22;54121;53.508;49.422;2023-02-14T03:23:27;-2.60;78.00
67194;DHT22;54121;53.508;49.422;2023-02-14T03:28:46;-2.60;78.70
67194;DHT22;54121;53.508;49.422;2023-02-14T03:32:06;-2.60;78.60
67194;DHT22;54121;53.508;49.422;2023-02-14T03:42:31;-2.50;77.20
67194;DHT22;54121;53.508;49.422;2023-02-14T03:45:02;-2.50;77.60
67194;DHT22;54121;53.508;49.422;2023-02-14T03:47:31;-2.60;77.80
67194;DHT22;54121;53.508;49.422;2023-02-14T03:50:06;-2.60;78.30
67194;DHT22;54121;53.508;49.422;2023-02-14T03:52:35;-2.70;78.60
67194;DHT22;54121;53.508;49.422;2023-02-14T03:55:05;-2.60;78.70
67194;DHT22;54121;53.508;49.422;2023-02-14T03:57:37;-2.60;78.50
67194;DHT22;54121;53.508;49.422;2023-02-14T04:00:07;-2.60;78.10
67194;DHT22;54121;53.508;49.422;2023-02-14T04:02:42;-2.70;78.40
67194;DHT22;54121;53.508;49.422;2023-02-14T04:05:15;-2.70;78.80
67194;DHT22;54121;53.508;49.422;2023-02-14T04:07:45;-2.60;78.80
67194;DHT22;54121;53.508;49.422;2023-02-14T04:10:12;-2.50;78.40
67194;DHT22;54121;53.508;49.422;2023-02-14T04:12:39;-2.40;77.00
67194;DHT22;54121;53.508;49.422;2023-02-14T04:15:06;-2.30;76.70
67194;DHT22;54121;53.508;49.422;2023-02-14T04:17:33;-2.30;76.00
67194;DHT22;54121;53.508;49.422;2023-02-14T04:20:18;-2.20;75.70
67194;DHT22;54121;53.508;49.422;2023-02-14T04:23:00;-2.00;74.80
67194;DHT22;54121;53.508;49.422;2023-02-14T04:25:27;-2.00;73.90
67194;DHT22;54121;53.508;49.422;2023-02-14T04:27:54;-2.10;73.70
67194;DHT22;54121;53.508;49.422;2023-02-14T04:30:21;-2.10;73.60
67194;DHT22;54121;53.508;49.422;2023-02-14T04:32:48;-1.90;73.40
67194;DHT22;54121;53.508;49.422;2023-02-14T04:35:15;-1.50;71.90
67194;DHT22;54121;53.508;49.422;2023-02-14T04:37:41;-1.60;70.80
67194;DHT22;54121;53.508;49.422;2023-02-14T04:40:08;-1.50;70.80
67194;DHT22;54121;53.508;49.422;2023-02-14T04:42:35;-1.30;70.70
67194;DHT22;54121;53.508;49.422;2023-02-14T04:45:01;-1.20;70.20
67194;DHT22;54121;53.508;49.422;2023-02-14T04:47:28;-0.90;68.90
67194;DHT22;54121;53.508;49.422;2023-02-14T04:49:54;-0.70;68.60
67194;DHT22;54121;53.508;49.422;2023-02-14T04:52:21;-0.70;66.90
67194;DHT22;54121;53.508;49.422;2023-02-14T04:54:47;-1.00;66.70
67194;DHT22;54121;53.508;49.422;2023-02-14T04:57:14;-1.00;66.60
67194;DHT22;54121;53.508;49.422;2023-02-14T04:59:40;-1.20;66.90
67194;DHT22;54121;53.508;49.422;2023-02-14T05:02:07;-1.20;67.50
67194;DHT22;54121;53.508;49.422;2023-02-14T05:04:39;-1.20;68.70
67194;DHT22;54121;53.508;49.422;2023-02-14T05:07:16;-1.00;67.80
67194;DHT22;54121;53.508;49.422;2023-02-14T05:09:43;-0.90;66.20
67194;DHT22;54121;53.508;49.422;2023-02-14T05:12:15;-0.80;65.70
67194;DHT22;54121;53.508;49.422;2023-02-14T05:14:42;-0.80;64.90
67194;DHT22;54121;53.508;49.422;2023-02-14T05:17:08;-0.90;65.40
67194;DHT22;54121;53.508;49.422;2023-02-14T05:19:35;-0.80;66.00
67194;DHT22;54121;53.508;49.422;2023-02-14T05:22:01;-0.80;65.50
67194;DHT22;54121;53.508;49.422;2023-02-14T05:24:34;-0.70;65.60
67194;DHT22;54121;53.508;49.422;2023-02-14T05:27:00;-0.40;64.30
67194;DHT22;54121;53.508;49.422;2023-02-14T05:29:27;-0.50;63.40
67194;DHT22;54121;53.508;49.422;2023-02-14T05:31:53;-0.50;64.20
67194;DHT22;54121;53.508;49.422;2023-02-14T05:34:19;-0.40;64.40
67194;DHT22;54121;53.508;49.422;2023-02-14T05:36:46;-0.30;63.70
67194;DHT22;54121;53.508;49.422;2023-02-14T05:39:30;0.00;63.50
67194;DHT22;54121;53.508;49.422;2023-02-14T05:42:14;0.20;62.10
67194;DHT22;54121;53.508;49.422;2023-02-14T05:44:46;0.10;61.70
67194;DHT22;54121;53.508;49.422;2023-02-14T05:47:19;0.20;61.70
67194;DHT22;54121;53.508;49.422;2023-02-14T05:50:03;0.20;61.20
67194;DHT22;54121;53.508;49.422;2023-02-14T05:52:30;0.10;61.40
67194;DHT22;54121;53.508;49.422;2023-02-14T05:54:57;0.10;61.30
67194;DHT22;54121;53.508;49.422;2023-02-14T05:57:23;0.20;60.40
67194;DHT22;54121;53.508;49.422;2023-02-14T05:59:49;0.50;60.50
67194;DHT22;54121;53.508;49.422;2023-02-14T06:02:22;0.60;59.30
67194;DHT22;54121;53.508;49.422;2023-02-14T06:04:48;0.60;58.70
67194;DHT22;54121;53.508;49.422;2023-02-14T06:07:16;0.50;58.70
67194;DHT22;54121;53.508;49.422;2023-02-14T06:09:46;0.40;58.90
67194;DHT22;54121;53.508;49.422;2023-02-14T06:12:13;0.10;59.60
67194;DHT22;54121;53.508;49.422;2023-02-14T06:14:39;0.30;60.50
67194;DHT22;54121;53.508;49.422;2023-02-14T06:17:08;0.70;59.90
67194;DHT22;54121;53.508;49.422;2023-02-14T06:19:50;-0.30;58.00
67194;DHT22;54121;53.508;49.422;2023-02-14T06:22:17;1.00;57.80
67194;DHT22;54121;53.508;49.422;2023-02-14T06:24:43;1.20;57.90
67194;DHT22;54121;53.508;49.422;2023-02-14T06:27:10;1.10;56.60
67194;DHT22;54121;53.508;49.422;2023-02-14T06:29:36;1.40;56.80
67194;DHT22;54121;53.508;49.422;2023-02-14T06:32:03;1.60;55.30
67194;DHT22;54121;53.508;49.422;2023-02-14T06:34:34;2.00;55.00
67194;DHT22;54121;53.508;49.422;2023-02-14T06:37:01;1.70;53.90
67194;DHT22;54121;53.508;49.422;2023-02-14T06:39:27;1.80;55.10
67194;DHT22;54121;53.508;49.422;2023-02-14T06:41:54;1.80;54.50
67194;DHT22;54121;53.508;49.422;2023-02-14T06:44:20;1.70;54.50
67194;DHT22;54121;53.508;49.422;2023-02-14T06:46:47;1.70;54.10
67194;DHT22;54121;53.508;49.422;2023-02-14T06:49:13;1.40;54.10
67194;DHT22;54121;53.508;49.422;2023-02-14T06:51:45;1.30;56.00
67194;DHT22;54121;53.508;49.422;2023-02-14T06:54:24;1.10;54.60
67194;DHT22;54121;53.508;49.422;2023-02-14T06:56:56;3.60;57.40
67194;DHT22;54121;53.508;49.422;2023-02-14T06:59:23;0.60;56.40
67194;DHT22;54121;53.508;49.422;2023-02-14T07:01:55;0.40;57.10
67194;DHT22;54121;53.508;49.422;2023-02-14T07:04:22;0.80;56.50
67194;DHT22;54121;53.508;49.422;2023-02-14T07:06:48;0.90;55.90
67194;DHT22;54121;53.508;49.422;2023-02-14T07:09:20;0.90;54.50
67194;DHT22;54121;53.508;49.422;2023-02-14T07:12:08;1.00;54.60
67194;DHT22;54121;53.508;49.422;2023-02-14T07:14:40;1.00;54.50
67194;DHT22;54121;53.508;49.422;2023-02-14T07:17:07;0.80;54.60
67194;DHT22;54121;53.508;49.422;2023-02-14T07:19:33;0.70;54.80
67194;DHT22;54121;53.508;49.422;2023-02-14T07:22:00;0.80;55.70
67194;DHT22;54121;53.508;49.422;2023-02-14T07:24:27;1.10;54.20
67194;DHT22;54121;53.508;49.422;2023-02-14T07:26:53;0.90;53.80
67194;DHT22;54121;53.508;49.422;2023-02-14T07:29:20;1.10;53.80
67194;DHT22;54121;53.508;49.422;2023-02-14T07:31:46;1.10;54.40
67194;DHT22;54121;53.508;49.422;2023-02-14T07:34:12;1.10;53.70
67194;DHT22;54121;53.508;49.422;2023-02-14T07:36:50;1.10;53.40
67194;DHT22;54121;53.508;49.422;2023-02-14T07:39:45;1.30;54.60
67194;DHT22;54121;53.508;49.422;2023-02-14T07:42:17;1.10;53.80
67194;DHT22;54121;53.508;49.422;2023-02-14T07:44:50;1.30;54.40
67194;DHT22;54121;53.508;49.422;2023-02-14T07:47:22;1.30;53.90
67194;DHT22;54121;53.508;49.422;2023-02-14T07:49:55;1.60;54.10
67194;DHT22;54121;53.508;49.422;2023-02-14T07:52:39;1.70;53.20
67194;DHT22;54121;53.508;49.422;2023-02-14T07:55:06;2.00;52.60
67194;DHT22;54121;53.508;49.422;2023-02-14T07:57:33;4.40;53.90
67194;DHT22;54121;53.508;49.422;2023-02-14T08:00:18;1.80;53.70
67194;DHT22;54121;53.508;49.422;2023-02-14T08:02:44;2.00;52.00
67194;DHT22;54121;53.508;49.422;2023-02-14T08:05:17;2.00;52.20
67194;DHT22;54121;53.508;49.422;2023-02-14T08:07:55;2.60;50.50
67194;DHT22;54121;53.508;49.422;2023-02-14T08:10:21;2.50;49.00
67194;DHT22;54121;53.508;49.422;2023-02-14T08:12:47;2.50;49.80
67194;DHT22;54121;53.508;49.422;2023-02-14T08:15:31;2.90;49.30
67194;DHT22;54121;53.508;49.422;2023-02-14T08:18:16;3.30;48.60
67194;DHT22;54121;53.508;49.422;2023-02-14T08:20:50;3.50;48.90
67194;DHT22;54121;53.508;49.422;2023-02-14T08:23:17;4.10;46.90
67194;DHT22;54121;53.508;49.422;2023-02-14T08:26:00;4.10;46.50
67194;DHT22;54121;53.508;49.422;2023-02-14T08:28:28;4.30;46.40
67194;DHT22;54121;53.508;49.422;2023-02-14T08:31:01;4.70;45.70
67194;DHT22;54121;53.508;49.422;2023-02-14T08:33:46;4.90;44.90
67194;DHT22;54121;53.508;49.422;2023-02-14T08:36:23;5.00;44.30
67194;DHT22;54121;53.508;49.422;2023-02-14T08:38:55;5.10;44.30
67194;DHT22;54121;53.508;49.422;2023-02-14T08:41:41;4.90;44.60
67194;DHT22;54121;53.508;49.422;2023-02-14T08:44:19;4.50;45.40
67194;DHT22;54121;53.508;49.422;2023-02-14T08:47:04;4.70;46.10
67194;DHT22;54121;53.508;49.422;2023-02-14T08:49:42;4.80;46.40
67194;DHT22;54121;53.508;49.422;2023-02-14T08:52:08;4.30;44.20
67194;DHT22;54121;53.508;49.422;2023-02-14T08:54:35;5.00;44.00
67194;DHT22;54121;53.508;49.422;2023-02-14T08:57:02;5.00;44.60
67194;DHT22;54121;53.508;49.422;2023-02-14T08:59:28;4.90;44.30
67194;DHT22;54121;53.508;49.422;2023-02-14T09:02:01;5.00;44.20
67194;DHT22;54121;53.508;49.422;2023-02-14T09:04:27;5.00;44.20
67194;DHT22;54121;53.508;49.422;2023-02-14T09:06:54;5.00;43.80
67194;DHT22;54121;53.508;49.422;2023-02-14T09:09:20;5.20;43.80
67194;DHT22;54121;53.508;49.422;2023-02-14T09:11:47;5.40;43.30
67194;DHT22;54121;53.508;49.422;2023-02-14T09:14:13;5.80;42.60
67194;DHT22;54121;53.508;49.422;2023-02-14T09:16:40;6.20;40.60
67194;DHT22;54121;53.508;49.422;2023-02-14T09:19:35;6.10;41.00
67194;DHT22;54121;53.508;49.422;2023-02-14T09:22:14;6.00;40.30
67194;DHT22;54121;53.508;49.422;2023-02-14T09:24:40;5.90;39.80
67194;DHT22;54121;53.508;49.422;2023-02-14T09:27:07;5.70;40.40
67194;DHT22;54121;53.508;49.422;2023-02-14T09:29:40;5.70;41.00
67194;DHT22;54121;53.508;49.422;2023-02-14T09:32:06;5.60;41.40
67194;DHT22;54121;53.508;49.422;2023-02-14T09:34:40;5.50;41.50
67194;DHT22;54121;53.508;49.422;2023-02-14T09:37:08;5.60;40.80
67194;DHT22;54121;53.508;49.422;2023-02-14T09:39:36;5.60;41.70
67194;DHT22;54121;53.508;49.422;2023-02-14T09:42:35;5.90;39.40
67194;DHT22;54121;53.508;49.422;2023-02-14T09:45:16;5.70;39.10
67194;DHT22;54121;53.508;49.422;2023-02-14T09:50:45;5.10;40.80
67194;DHT22;54121;53.508;49.422;2023-02-14T09:53:25;5.30;39.60
67194;DHT22;54121;53.508;49.422;2023-02-14T10:01:39;5.00;40.60
67194;DHT22;54121;53.508;49.422;2023-02-14T10:10:41;5.30;40.30
67194;DHT22;54121;53.508;49.422;2023-02-14T10:13:22;5.30;40.10
67194;DHT22;54121;53.508;49.422;2023-02-14T10:16:02;5.60;40.00
67194;DHT22;54121;53.508;49.422;2023-02-14T10:19:05;5.70;39.30
67194;DHT22;54121;53.508;49.422;2023-02-14T10:22:10;5.90;38.60
67194;DHT22;54121;53.508;49.422;2023-02-14T10:24:57;6.00;38.30
67194;DHT22;54121;53.508;49.422;2023-02-14T10:27:44;5.90;37.50
67194;DHT22;54121;53.508;49.422;2023-02-14T10:30:22;5.90;37.60
67194;DHT22;54121;53.508;49.422;2023-02-14T10:33:21;5.90;37.30
67194;DHT22;54121;53.508;49.422;2023-02-14T10:36:20;6.20;36.60
67194;DHT22;54121;53.508;49.422;2023-02-14T10:39:25;6.60;35.30
67194;DHT22;54121;53.508;49.422;2023-02-14T10:51:18;5.70;35.80
67194;DHT22;54121;53.508;49.422;2023-02-14T10:54:41;5.50;37.20
67194;DHT22;54121;53.508;49.422;2023-02-14T10:59:49;5.90;36.30
67194;DHT22;54121;53.508;49.422;2023-02-14T11:02:26;5.60;37.50
67194;DHT22;54121;53.508;49.422;2023-02-14T11:04:55;5.80;37.50
67194;DHT22;54121;53.508;49.422;2023-02-14T11:07:22;6.00;36.70
67194;DHT22;54121;53.508;49.422;2023-02-14T11:09:49;6.40;35.80
67194;DHT22;54121;53.508;49.422;2023-02-14T11:12:35;5.90;35.10
67194;DHT22;54121;53.508;49.422;2023-02-14T11:15:32;6.40;34.20
67194;DHT22;54121;53.508;49.422;2023-02-14T11:18:23;6.60;34.70
67194;DHT22;54121;53.508;49.422;2023-02-14T11:21:14;6.90;33.10
67194;DHT22;54121;53.508;49.422;2023-02-14T11:23:47;6.90;34.10
67194;DHT22;54121;53.508;49.422;2023-02-14T11:26:26;7.10;32.20
67194;DHT22;54121;53.508;49.422;2023-02-14T11:29:00;7.10;31.90
67194;DHT22;54121;53.508;49.422;2023-02-14T11:31:35;7.10;31.60
67194;DHT22;54121;53.508;49.422;2023-02-14T11:34:05;8.00;30.70
67194;DHT22;54121;53.508;49.422;2023-02-14T11:36:44;8.10;30.10
67194;DHT22;54121;53.508;49.422;2023-02-14T11:39:26;8.70;29.50
67194;DHT22;54121;53.508;49.422;2023-02-14T11:45:34;8.70;29.50
67194;DHT22;54121;53.508;49.422;2023-02-14T11:48:23;9.40;28.80
67194;DHT22;54121;53.508;49.422;2023-02-14T11:51:07;9.30;28.00
67194;DHT22;54121;53.508;49.422;2023-02-14T11:53:44;9.20;28.20
67194;DHT22;54121;53.508;49.422;2023-02-14T11:56:12;9.10;28.00
67194;DHT22;54121;53.508;49.422;2023-02-14T11:58:48;9.20;27.90
67194;DHT22;54121;53.508;49.422;2023-02-14T12:01:28;8.90;27.90
67194;DHT22;54121;53.508;49.422;2023-02-14T12:04:16;9.20;28.00
67194;DHT22;54121;53.508;49.422;2023-02-14T12:06:45;9.50;27.30
67194;DHT22;54121;53.508;49.422;2023-02-14T12:11:58;8.80;27.90
67194;DHT22;54121;53.508;49.422;2023-02-14T12:14:41;8.80;28.50
67194;DHT22;54121;53.508;49.422;2023-02-14T12:17:33;8.70;28.60
67194;DHT22;54121;53.508;49.422;2023-02-14T12:20:16;8.70;28.30
67194;DHT22;54121;53.508;49.422;2023-02-14T12:32:30;7.50;29.00
67194;DHT22;54121;53.508;49.422;2023-02-14T12:38:00;7.60;30.40
67194;DHT22;54121;53.508;49.422;2023-02-14T12:40:48;8.80;29.60
67194;DHT22;54121;53.508;49.422;2023-02-14T12:46:44;8.30;28.80
67194;DHT22;54121;53.508;49.422;2023-02-14T13:01:32;8.40;28.80
67194;DHT22;54121;53.508;49.422;2023-02-14T13:06:58;8.20;29.00
67194;DHT22;54121;53.508;49.422;2023-02-14T13:22:31;6.10;32.20
67194;DHT22;54121;53.508;49.422;2023-02-14T13:25:36;6.30;33.00
67194;DHT22;54121;53.508;49.422;2023-02-14T13:28:10;6.40;32.70
67194;DHT22;54121;53.508;49.422;2023-02-14T13:30:38;6.20;32.80
67194;DHT22;54121;53.508;49.422;2023-02-14T13:33:16;6.20;33.20
67194;DHT22;54121;53.508;49.422;2023-02-14T13:35:49;6.10;33.00
67194;DHT22;54121;53.508;49.422;2023-02-14T13:38:50;6.00;33.20
67194;DHT22;54121;53.508;49.422;2023-02-14T13:41:23;5.80;33.50
67194;DHT22;54121;53.508;49.422;2023-02-14T13:44:06;5.60;33.80
67194;DHT22;54121;53.508;49.422;2023-02-14T13:46:49;5.50;34.60
67194;DHT22;54121;53.508;49.422;2023-02-14T13:49:49;5.40;34.50
67194;DHT22;54121;53.508;49.422;2023-02-14T13:55:13;5.30;35.00
67194;DHT22;54121;53.508;49.422;2023-02-14T13:57:41;5.20;35.30
67194;DHT22;54121;53.508;49.422;2023-02-14T14:06:10;5.10;35.80
67194;DHT22;54121;53.508;49.422;2023-02-14T14:08:55;4.50;36.70
67194;DHT22;54121;53.508;49.422;2023-02-14T14:11:52;4.40;37.40
67194;DHT22;54121;53.508;49.422;2023-02-14T14:14:30;4.50;37.40
67194;DHT22;54121;53.508;49.422;2023-02-14T14:17:03;4.60;37.00
67194;DHT22;54121;53.508;49.422;2023-02-14T14:19:41;4.50;36.90
67194;DHT22;54121;53.508;49.422;2023-02-14T14:22:10;4.20;37.50
67194;DHT22;54121;53.508;49.422;2023-02-14T14:24:49;4.00;37.50
67194;DHT22;54121;53.508;49.422;2023-02-14T14:27:23;3.60;38.70
67194;DHT22;54121;53.508;49.422;2023-02-14T14:29:59;3.60;38.90
67194;DHT22;54121;53.508;49.422;2023-02-14T14:32:28;3.40;39.20
67194;DHT22;54121;53.508;49.422;2023-02-14T14:35:01;3.50;39.00
67194;DHT22;54121;53.508;49.422;2023-02-14T14:37:44;3.30;39.60
67194;DHT22;54121;53.508;49.422;2023-02-14T14:40:30;3.10;39.50
67194;DHT22;54121;53.508;49.422;2023-02-14T14:45:39;2.80;40.30
67194;DHT22;54121;53.508;49.422;2023-02-14T14:48:11;2.70;40.80
67194;DHT22;54121;53.508;49.422;2023-02-14T14:50:45;2.70;41.20
67194;DHT22;54121;53.508;49.422;2023-02-14T14:53:46;2.40;42.20
67194;DHT22;54121;53.508;49.422;2023-02-14T14:56:24;2.50;42.00
67194;DHT22;54121;53.508;49.422;2023-02-14T14:58:53;2.20;42.70
67194;DHT22;54121;53.508;49.422;2023-02-14T15:01:45;1.40;45.30
67194;DHT22;54121;53.508;49.422;2023-02-14T15:04:31;0.80;47.20
67194;DHT22;54121;53.508;49.422;2023-02-14T15:07:24;0.60;48.80
67194;DHT22;54121;53.508;49.422;2023-02-14T15:09:46;0.40;49.50
67194;DHT22;54121;53.508;49.422;2023-02-14T15:12:20;0.10;50.40
67194;DHT22;54121;53.508;49.422;2023-02-14T15:15:08;-0.20;51.60
67194;DHT22;54121;53.508;49.422;2023-02-14T15:17:36;-0.40;52.50
67194;DHT22;54121;53.508;49.422;2023-02-14T15:20:29;-0.60;54.70
67194;DHT22;54121;53.508;49.422;2023-02-14T15:22:55;-0.60;53.60
67194;DHT22;54121;53.508;49.422;2023-02-14T15:25:33;-0.70;53.80
67194;DHT22;54121;53.508;49.422;2023-02-14T15:28:00;-1.00;54.30
67194;DHT22;54121;53.508;49.422;2023-02-14T15:30:33;-1.00;55.00
67194;DHT22;54121;53.508;49.422;2023-02-14T15:33:05;-1.20;55.30
67194;DHT22;54121;53.508;49.422;2023-02-14T15:35:33;-1.40;55.40
67194;DHT22;54121;53.508;49.422;2023-02-14T15:38:16;-1.60;56.10
67194;DHT22;54121;53.508;49.422;2023-02-14T15:40:45;-1.40;55.70
67194;DHT22;54121;53.508;49.422;2023-02-14T15:43:32;-1.60;55.90
67194;DHT22;54121;53.508;49.422;2023-02-14T15:46:33;-1.60;56.10
67194;DHT22;54121;53.508;49.422;2023-02-14T15:49:13;-1.60;56.50
67194;DHT22;54121;53.508;49.422;2023-02-14T15:51:42;-1.80;55.90
67194;DHT22;54121;53.508;49.422;2023-02-14T15:54:22;-2.10;56.60
67194;DHT22;54121;53.508;49.422;2023-02-14T15:56:51;-2.10;57.60
67194;DHT22;54121;53.508;49.422;2023-02-14T15:59:23;-2.10;57.80
67194;DHT22;54121;53.508;49.422;2023-02-14T16:05:17;-2.10;58.00
67194;DHT22;54121;53.508;49.422;2023-02-14T16:08:02;-2.30;58.40
67194;DHT22;54121;53.508;49.422;2023-02-14T16:10:37;-2.30;58.40
67194;DHT22;54121;53.508;49.422;2023-02-14T16:15:56;-2.40;58.40
67194;DHT22;54121;53.508;49.422;2023-02-14T16:18:45;-2.40;58.90
67194;DHT22;54121;53.508;49.422;2023-02-14T16:21:24;-2.60;58.60
67194;DHT22;54121;53.508;49.422;2023-02-14T16:26:53;-2.60;59.60
67194;DHT22;54121;53.508;49.422;2023-02-14T16:29:20;-2.60;59.40
67194;DHT22;54121;53.508;49.422;2023-02-14T16:32:12;-2.60;59.50
67194;DHT22;54121;53.508;49.422;2023-02-14T16:34:52;-2.40;58.90
67194;DHT22;54121;53.508;49.422;2023-02-14T16:37:33;-2.50;59.10
67194;DHT22;54121;53.508;49.422;2023-02-14T16:40:12;-2.70;60.20
67194;DHT22;54121;53.508;49.422;2023-02-14T16:42:45;-2.60;60.10
67194;DHT22;54121;53.508;49.422;2023-02-14T16:45:27;-2.50;60.00
67194;DHT22;54121;53.508;49.422;2023-02-14T16:47:53;-2.60;60.00
67194;DHT22;54121;53.508;49.422;2023-02-14T16:50:20;-2.50;59.70
67194;DHT22;54121;53.508;49.422;2023-02-14T16:52:52;-2.70;59.90
67194;DHT22;54121;53.508;49.422;2023-02-14T16:55:20;-2.70;60.30
67194;DHT22;54121;53.508;49.422;2023-02-14T16:57:49;-2.80;60.50
67194;DHT22;54121;53.508;49.422;2023-02-14T17:00:19;-2.90;61.50
67194;DHT22;54121;53.508;49.422;2023-02-14T17:02:47;-2.60;61.00
67194;DHT22;54121;53.508;49.422;2023-02-14T17:05:35;-2.60;59.80
67194;DHT22;54121;53.508;49.422;2023-02-14T17:08:10;-2.40;59.50
67194;DHT22;54121;53.508;49.422;2023-02-14T17:10:39;-2.40;59.00
67194;DHT22;54121;53.508;49.422;2023-02-14T17:13:07;-2.40;59.00
67194;DHT22;54121;53.508;49.422;2023-02-14T17:15:37;-2.50;59.30
67194;DHT22;54121;53.508;49.422;2023-02-14T17:18:08;-2.20;58.70
67194;DHT22;54121;53.508;49.422;2023-02-14T17:20:36;-2.30;58.50
67194;DHT22;54121;53.508;49.422;2023-02-14T17:23:03;-2.30;58.50
67194;DHT22;54121;53.508;49.422;2023-02-14T17:25:30;-2.50;58.90
67194;DHT22;54121;53.508;49.422;2023-02-14T17:27:57;-2.60;59.20
67194;DHT22;54121;53.508;49.422;2023-02-14T17:30:23;-2.70;59.80
67194;DHT22;54121;53.508;49.422;2023-02-14T17:32:50;-2.80;60.30
67194;DHT22;54121;53.508;49.422;2023-02-14T17:35:17;-2.70;60.10
67194;DHT22;54121;53.508;49.422;2023-02-14T17:37:44;-2.80;60.20
67194;DHT22;54121;53.508;49.422;2023-02-14T17:40:11;-2.80;59.80
67194;DHT22;54121;53.508;49.422;2023-02-14T17:42:43;-2.60;59.30
67194;DHT22;54121;53.508;49.422;2023-02-14T17:45:11;-2.80;59.60
67194;DHT22;54121;53.508;49.422;2023-02-14T17:47:44;-2.90;60.30
67194;DHT22;54121;53.508;49.422;2023-02-14T17:50:13;-2.90;60.30
67194;DHT22;54121;53.508;49.422;2023-02-14T17:52:41;-3.00;60.70
67194;DHT22;54121;53.508;49.422;2023-02-14T17:55:08;-2.90;60.60
67194;DHT22;54121;53.508;49.422;2023-02-14T17:57:35;-2.80;60.30
67194;DHT22;54121;53.508;49.422;2023-02-14T18:00:04;-4.00;59.50
67194;DHT22;54121;53.508;49.422;2023-02-14T18:02:33;-3.00;60.00
67194;DHT22;54121;53.508;49.422;2023-02-14T18:04:59;-2.90;60.50
67194;DHT22;54121;53.508;49.422;2023-02-14T18:07:26;-3.00;60.50
67194;DHT22;54121;53.508;49.422;2023-02-14T18:09:53;-3.10;61.80
67194;DHT22;54121;53.508;49.422;2023-02-14T18:12:19;-3.10;62.10
67194;DHT22;54121;53.508;49.422;2023-02-14T18:14:46;-3.20;61.80
67194;DHT22;54121;53.508;49.422;2023-02-14T18:17:12;-3.20;62.20
67194;DHT22;54121;53.508;49.422;2023-02-14T18:19:39;-3.20;62.70
67194;DHT22;54121;53.508;49.422;2023-02-14T18:22:05;-3.10;62.70
67194;DHT22;54121;53.508;49.422;2023-02-14T18:24:32;-3.10;62.90
67194;DHT22;54121;53.508;49.422;2023-02-14T18:26:59;-3.30;63.60
67194;DHT22;54121;53.508;49.422;2023-02-14T18:29:27;-3.30;64.20
67194;DHT22;54121;53.508;49.422;2023-02-14T18:31:53;-3.30;64.20
67194;DHT22;54121;53.508;49.422;2023-02-14T18:34:20;-3.40;65.20
67194;DHT22;54121;53.508;49.422;2023-02-14T18:36:46;-3.20;64.90
67194;DHT22;54121;53.508;49.422;2023-02-14T18:39:12;-3.30;65.00
67194;DHT22;54121;53.508;49.422;2023-02-14T18:41:39;-3.40;65.20